Salacak — 3FBM4 — position and weather

sailwx.info

Track history (hours):
 
Tides and Currents Weather Stations Pressure Air Temp Water Temp Dewpoint Dewpoint Depression Visibility Wind Speed Wind Dir Waves Ship Positions

Salacak

Last reported at 2014-Oct-27 10:18 UTC. Time now 2014-Nov-01 12:37 UTC.
Position N 46°35' E 031°33'.

Length 126 m; draft 8.5 m.

Type: Cargo ship. MMSI: 373532000.

Date/timePositionNaut miles runAvg speedWind from/ knotsBaromVisibWave heightAir tempDewpointWater temp
2014-Oct-27 10:18N 46°35' E 031°33'1011.3
2014-Oct-27 09:26N 46°36' E 031°47'9 9.9
2014-Oct-27 08:33N 46°42' E 031°56'9 9.5
2014-Oct-27 07:33N 46°51' E 031°57'6 5.5
2014-Oct-27 06:32N 46°57' E 032°00'0 0.0
2014-Oct-27 05:32N 46°57' E 032°00'0 0.0
2014-Oct-27 04:32N 46°57' E 032°00'0 0.0
2014-Oct-27 03:32N 46°57' E 032°00'0 0.0
2014-Oct-27 02:32N 46°57' E 032°00'0 0.0
2014-Oct-27 01:32N 46°57' E 032°00'0 0.0
2014-Oct-27 00:32N 46°57' E 032°00'0 0.0
2014-Oct-26 23:32N 46°57' E 032°00'0 0.0
2014-Oct-26 22:32N 46°57' E 032°00'0 0.1
2014-Oct-26 21:32N 46°57' E 032°00'0 0.5
2014-Oct-26 20:32N 46°57' E 032°01'0 0.0
2014-Oct-26 19:34N 46°57' E 032°01'0 0.0
2014-Oct-26 18:33N 46°57' E 032°01'0 0.0
2014-Oct-26 17:34N 46°57' E 032°01'0 0.0
2014-Oct-26 16:33N 46°57' E 032°01'0 0.0
2014-Oct-26 15:34N 46°57' E 032°01'0 0.0
2014-Oct-26 14:33N 46°57' E 032°01'0 0.0
2014-Oct-26 13:33N 46°57' E 032°01'0 0.0
2014-Oct-26 12:33N 46°57' E 032°01'0 0.0
2014-Oct-26 11:33N 46°57' E 032°01'0 0.0
2014-Oct-26 10:33N 46°57' E 032°01'0 0.0
2014-Oct-26 09:33N 46°57' E 032°01'0 0.0
2014-Oct-26 08:33N 46°57' E 032°01'0 0.0
2014-Oct-26 07:34N 46°57' E 032°01'0 0.0
2014-Oct-26 06:33N 46°57' E 032°01'0 0.0
2014-Oct-26 05:34N 46°57' E 032°01'0 0.0
2014-Oct-25 20:31N 46°57' E 032°01'0 0.0
2014-Oct-25 19:33N 46°57' E 032°01'0 0.0
2014-Oct-25 18:34N 46°57' E 032°01'0 0.0
2014-Oct-25 17:34N 46°57' E 032°01'0 0.0
2014-Oct-25 16:34N 46°57' E 032°01'0 0.0
2014-Oct-25 15:34N 46°57' E 032°01'0 0.0
2014-Oct-25 14:33N 46°57' E 032°01'0 0.0
2014-Oct-25 13:34N 46°57' E 032°01'0 0.0
2014-Oct-25 12:34N 46°57' E 032°01'0 0.0
2014-Oct-25 11:33N 46°57' E 032°01'0 0.0
2014-Oct-25 10:34N 46°57' E 032°01'0 0.0
2014-Oct-25 09:33N 46°57' E 032°01'0 0.0
2014-Oct-25 08:33N 46°57' E 032°01'0 0.0
2014-Oct-25 07:33N 46°57' E 032°01'0 0.2
2014-Oct-25 06:34N 46°57' E 032°01'1 0.6
2014-Oct-25 05:33N 46°57' E 031°60'0 0.0
2014-Oct-25 04:33N 46°57' E 031°60'0 0.0
2014-Oct-25 03:33N 46°57' E 031°60'0 0.0
2014-Oct-25 02:33N 46°57' E 031°60'0 0.0
2014-Oct-25 01:33N 46°57' E 031°60'0 0.0
2014-Oct-25 00:33N 46°57' E 031°60'0 0.0
2014-Oct-24 23:33N 46°57' E 031°60'0 0.0
2014-Oct-24 22:33N 46°57' E 031°60'0 0.0
2014-Oct-24 21:34N 46°57' E 031°60'0 0.0
2014-Oct-24 20:33N 46°57' E 031°60'0 0.0
2014-Oct-24 19:33N 46°57' E 031°60'0 0.0
2014-Oct-24 18:33N 46°57' E 031°60'0 0.0
2014-Oct-24 17:33N 46°57' E 031°60'0 0.0
2014-Oct-24 16:33N 46°57' E 031°60'0 0.0
2014-Oct-24 15:34N 46°57' E 031°60'0 0.0
2014-Oct-24 14:34N 46°57' E 031°60'0 0.0
2014-Oct-24 13:34N 46°57' E 031°60'0 0.0
2014-Oct-24 12:33N 46°57' E 031°60'0 0.0
2014-Oct-24 11:33N 46°57' E 031°60'0 0.0
2014-Oct-24 10:34N 46°57' E 031°60'0 0.0
2014-Oct-24 09:33N 46°57' E 031°60'0 0.0
2014-Oct-24 08:34N 46°57' E 031°60'0 0.0
2014-Oct-24 07:34N 46°57' E 031°60'0 0.0
2014-Oct-24 06:33N 46°57' E 031°60'0 0.0
2014-Oct-24 05:33N 46°57' E 031°60'0 0.1
2014-Oct-24 04:33N 46°57' E 031°60'5 4.5
2014-Oct-24 03:34N 46°52' E 031°59'8 8.4
2014-Oct-24 02:34N 46°44' E 031°56'8 8.3
2014-Oct-24 01:33N 46°36' E 031°50'9 8.7
2014-Oct-24 00:33N 46°35' E 031°38'355 9.9
2014-Oct-22 12:33N 40°60' E 028°60'9 9.1
2014-Oct-22 11:31N 40°51' E 029°04'6 5.8
2014-Oct-22 10:28N 40°52' E 029°12'0 0.0
2014-Oct-22 09:28N 40°52' E 029°12'0 0.0
2014-Oct-22 08:28N 40°52' E 029°12'0 0.0
2014-Oct-22 07:28N 40°52' E 029°12'0 0.0
2014-Oct-22 06:28N 40°52' E 029°12'0 0.0
2014-Oct-22 05:28N 40°52' E 029°12'0 0.0
2014-Oct-22 04:28N 40°52' E 029°12'0 0.0
2014-Oct-22 03:28N 40°52' E 029°12'0 0.0
2014-Oct-22 02:22N 40°52' E 029°12'0 0.0
2014-Oct-22 01:28N 40°52' E 029°12'0 0.0
2014-Oct-22 00:28N 40°52' E 029°12'0 0.1
2014-Oct-21 23:28N 40°52' E 029°12'0 0.0
2014-Oct-21 22:28N 40°52' E 029°12'0 0.0
2014-Oct-21 21:22N 40°52' E 029°12'0 0.0
2014-Oct-21 20:28N 40°52' E 029°12'0 0.0
2014-Oct-21 19:27N 40°52' E 029°12'0 0.0
2014-Oct-21 18:33N 40°52' E 029°12'0 0.1
2014-Oct-21 17:33N 40°52' E 029°12'0 0.0
2014-Oct-21 16:27N 40°52' E 029°12'0 0.0
2014-Oct-21 15:33N 40°52' E 029°12'0 0.0
2014-Oct-21 14:33N 40°52' E 029°12'0 0.0
2014-Oct-21 13:27N 40°52' E 029°12'0 0.0
2014-Oct-21 12:33N 40°52' E 029°12'0 0.0
2014-Oct-21 11:09N 40°52' E 029°12'0 0.0
2014-Oct-21 10:33N 40°52' E 029°12'0 0.0
2014-Oct-21 09:33N 40°52' E 029°12'0 0.0
2014-Oct-21 08:33N 40°52' E 029°12'0 0.0
2014-Oct-21 07:15N 40°52' E 029°12'0 0.0
2014-Oct-21 06:33N 40°52' E 029°12'0 0.0
2014-Oct-21 05:33N 40°52' E 029°12'0 0.0
2014-Oct-21 04:33N 40°52' E 029°12'0 0.0
2014-Oct-21 03:33N 40°52' E 029°12'0 0.0
2014-Oct-21 02:33N 40°52' E 029°12'0 0.0
2014-Oct-21 01:27N 40°52' E 029°12'0 0.0
2014-Oct-21 00:33N 40°52' E 029°12'0 0.0
2014-Oct-20 23:27N 40°52' E 029°12'0 0.0
2014-Oct-20 22:33N 40°52' E 029°12'0 0.1
2014-Oct-20 21:33N 40°52' E 029°12'0 0.1
2014-Oct-20 20:33N 40°52' E 029°12'0 0.0
2014-Oct-20 19:21N 40°52' E 029°12'0 0.0
2014-Oct-20 18:33N 40°52' E 029°12'0 0.0
2014-Oct-20 17:21N 40°52' E 029°12'0 0.0
2014-Oct-20 16:27N 40°52' E 029°12'0 0.0
2014-Oct-20 15:33N 40°52' E 029°12'0 0.0
2014-Oct-20 14:30N 40°52' E 029°12'0 0.0
2014-Oct-20 13:30N 40°52' E 029°12'0 0.0
2014-Oct-20 12:30N 40°52' E 029°12'0 0.0
2014-Oct-20 11:33N 40°52' E 029°12'0 0.0
2014-Oct-20 10:26N 40°52' E 029°12'0 0.0
2014-Oct-20 09:14N 40°52' E 029°12'0 0.0
2014-Oct-20 08:32N 40°52' E 029°12'0 0.0
2014-Oct-20 07:29N 40°52' E 029°12'0 0.0
2014-Oct-20 06:29N 40°52' E 029°12'0 0.0
2014-Oct-20 05:29N 40°52' E 029°12'0 0.0
2014-Oct-20 04:17N 40°52' E 029°12'0 0.0
2014-Oct-20 03:23N 40°52' E 029°12'0 0.0
2014-Oct-20 02:17N 40°52' E 029°12'0 0.0
2014-Oct-20 01:29N 40°52' E 029°12'0 0.0
2014-Oct-20 00:33N 40°52' E 029°12'4 3.8
2014-Oct-19 23:33N 40°50' E 029°08'1010.2
2014-Oct-19 22:33N 40°48' E 028°55'  
Track history (hours):
 
Tides and Currents Weather Stations Pressure Air Temp Water Temp Dewpoint Dewpoint Depression Visibility Wind Speed Wind Dir Waves Ship Positions

Salacak

Last reported at 2014-Oct-27 10:18 UTC. Time now 2014-Nov-01 12:37 UTC.
Position N 46°35' E 031°33'.

Length 126 m; draft 8.5 m.

Type: Cargo ship. MMSI: 373532000.

Date/timePositionNaut miles runAvg speedWind from/ knotsBaromVisibWave heightAir tempDewpointWater temp
2014-Oct-27 10:18N 46°35' E 031°33'1011.3
2014-Oct-27 09:26N 46°36' E 031°47'9 9.9
2014-Oct-27 08:33N 46°42' E 031°56'9 9.5
2014-Oct-27 07:33N 46°51' E 031°57'6 5.5
2014-Oct-27 06:32N 46°57' E 032°00'0 0.0
2014-Oct-27 05:32N 46°57' E 032°00'0 0.0
2014-Oct-27 04:32N 46°57' E 032°00'0 0.0
2014-Oct-27 03:32N 46°57' E 032°00'0 0.0
2014-Oct-27 02:32N 46°57' E 032°00'0 0.0
2014-Oct-27 01:32N 46°57' E 032°00'0 0.0
2014-Oct-27 00:32N 46°57' E 032°00'0 0.0
2014-Oct-26 23:32N 46°57' E 032°00'0 0.0
2014-Oct-26 22:32N 46°57' E 032°00'0 0.1
2014-Oct-26 21:32N 46°57' E 032°00'0 0.5
2014-Oct-26 20:32N 46°57' E 032°01'0 0.0
2014-Oct-26 19:34N 46°57' E 032°01'0 0.0
2014-Oct-26 18:33N 46°57' E 032°01'0 0.0
2014-Oct-26 17:34N 46°57' E 032°01'0 0.0
2014-Oct-26 16:33N 46°57' E 032°01'0 0.0
2014-Oct-26 15:34N 46°57' E 032°01'0 0.0
2014-Oct-26 14:33N 46°57' E 032°01'0 0.0
2014-Oct-26 13:33N 46°57' E 032°01'0 0.0
2014-Oct-26 12:33N 46°57' E 032°01'0 0.0
2014-Oct-26 11:33N 46°57' E 032°01'0 0.0
2014-Oct-26 10:33N 46°57' E 032°01'0 0.0
2014-Oct-26 09:33N 46°57' E 032°01'0 0.0
2014-Oct-26 08:33N 46°57' E 032°01'0 0.0
2014-Oct-26 07:34N 46°57' E 032°01'0 0.0
2014-Oct-26 06:33N 46°57' E 032°01'0 0.0
2014-Oct-26 05:34N 46°57' E 032°01'0 0.0
2014-Oct-25 20:31N 46°57' E 032°01'0 0.0
2014-Oct-25 19:33N 46°57' E 032°01'0 0.0
2014-Oct-25 18:34N 46°57' E 032°01'0 0.0
2014-Oct-25 17:34N 46°57' E 032°01'0 0.0
2014-Oct-25 16:34N 46°57' E 032°01'0 0.0
2014-Oct-25 15:34N 46°57' E 032°01'0 0.0
2014-Oct-25 14:33N 46°57' E 032°01'0 0.0
2014-Oct-25 13:34N 46°57' E 032°01'0 0.0
2014-Oct-25 12:34N 46°57' E 032°01'0 0.0
2014-Oct-25 11:33N 46°57' E 032°01'0 0.0
2014-Oct-25 10:34N 46°57' E 032°01'0 0.0
2014-Oct-25 09:33N 46°57' E 032°01'0 0.0
2014-Oct-25 08:33N 46°57' E 032°01'0 0.0
2014-Oct-25 07:33N 46°57' E 032°01'0 0.2
2014-Oct-25 06:34N 46°57' E 032°01'1 0.6
2014-Oct-25 05:33N 46°57' E 031°60'0 0.0
2014-Oct-25 04:33N 46°57' E 031°60'0 0.0
2014-Oct-25 03:33N 46°57' E 031°60'0 0.0
2014-Oct-25 02:33N 46°57' E 031°60'0 0.0
2014-Oct-25 01:33N 46°57' E 031°60'0 0.0
2014-Oct-25 00:33N 46°57' E 031°60'0 0.0
2014-Oct-24 23:33N 46°57' E 031°60'0 0.0
2014-Oct-24 22:33N 46°57' E 031°60'0 0.0
2014-Oct-24 21:34N 46°57' E 031°60'0 0.0
2014-Oct-24 20:33N 46°57' E 031°60'0 0.0
2014-Oct-24 19:33N 46°57' E 031°60'0 0.0
2014-Oct-24 18:33N 46°57' E 031°60'0 0.0
2014-Oct-24 17:33N 46°57' E 031°60'0 0.0
2014-Oct-24 16:33N 46°57' E 031°60'0 0.0
2014-Oct-24 15:34N 46°57' E 031°60'0 0.0
2014-Oct-24 14:34N 46°57' E 031°60'0 0.0
2014-Oct-24 13:34N 46°57' E 031°60'0 0.0
2014-Oct-24 12:33N 46°57' E 031°60'0 0.0
2014-Oct-24 11:33N 46°57' E 031°60'0 0.0
2014-Oct-24 10:34N 46°57' E 031°60'0 0.0
2014-Oct-24 09:33N 46°57' E 031°60'0 0.0
2014-Oct-24 08:34N 46°57' E 031°60'0 0.0
2014-Oct-24 07:34N 46°57' E 031°60'0 0.0
2014-Oct-24 06:33N 46°57' E 031°60'0 0.0
2014-Oct-24 05:33N 46°57' E 031°60'0 0.1
2014-Oct-24 04:33N 46°57' E 031°60'5 4.5
2014-Oct-24 03:34N 46°52' E 031°59'8 8.4
2014-Oct-24 02:34N 46°44' E 031°56'8 8.3
2014-Oct-24 01:33N 46°36' E 031°50'9 8.7
2014-Oct-24 00:33N 46°35' E 031°38'355 9.9
2014-Oct-22 12:33N 40°60' E 028°60'9 9.1
2014-Oct-22 11:31N 40°51' E 029°04'6 5.8
2014-Oct-22 10:28N 40°52' E 029°12'0 0.0
2014-Oct-22 09:28N 40°52' E 029°12'0 0.0
2014-Oct-22 08:28N 40°52' E 029°12'0 0.0
2014-Oct-22 07:28N 40°52' E 029°12'0 0.0
2014-Oct-22 06:28N 40°52' E 029°12'0 0.0
2014-Oct-22 05:28N 40°52' E 029°12'0 0.0
2014-Oct-22 04:28N 40°52' E 029°12'0 0.0
2014-Oct-22 03:28N 40°52' E 029°12'0 0.0
2014-Oct-22 02:22N 40°52' E 029°12'0 0.0
2014-Oct-22 01:28N 40°52' E 029°12'0 0.0
2014-Oct-22 00:28N 40°52' E 029°12'0 0.1
2014-Oct-21 23:28N 40°52' E 029°12'0 0.0
2014-Oct-21 22:28N 40°52' E 029°12'0 0.0
2014-Oct-21 21:22N 40°52' E 029°12'0 0.0
2014-Oct-21 20:28N 40°52' E 029°12'0 0.0
2014-Oct-21 19:27N 40°52' E 029°12'0 0.0
2014-Oct-21 18:33N 40°52' E 029°12'0 0.1
2014-Oct-21 17:33N 40°52' E 029°12'0 0.0
2014-Oct-21 16:27N 40°52' E 029°12'0 0.0
2014-Oct-21 15:33N 40°52' E 029°12'0 0.0
2014-Oct-21 14:33N 40°52' E 029°12'0 0.0
2014-Oct-21 13:27N 40°52' E 029°12'0 0.0
2014-Oct-21 12:33N 40°52' E 029°12'0 0.0
2014-Oct-21 11:09N 40°52' E 029°12'0 0.0
2014-Oct-21 10:33N 40°52' E 029°12'0 0.0
2014-Oct-21 09:33N 40°52' E 029°12'0 0.0
2014-Oct-21 08:33N 40°52' E 029°12'0 0.0
2014-Oct-21 07:15N 40°52' E 029°12'0 0.0
2014-Oct-21 06:33N 40°52' E 029°12'0 0.0
2014-Oct-21 05:33N 40°52' E 029°12'0 0.0
2014-Oct-21 04:33N 40°52' E 029°12'0 0.0
2014-Oct-21 03:33N 40°52' E 029°12'0 0.0
2014-Oct-21 02:33N 40°52' E 029°12'0 0.0
2014-Oct-21 01:27N 40°52' E 029°12'0 0.0
2014-Oct-21 00:33N 40°52' E 029°12'0 0.0
2014-Oct-20 23:27N 40°52' E 029°12'0 0.0
2014-Oct-20 22:33N 40°52' E 029°12'0 0.1
2014-Oct-20 21:33N 40°52' E 029°12'0 0.1
2014-Oct-20 20:33N 40°52' E 029°12'0 0.0
2014-Oct-20 19:21N 40°52' E 029°12'0 0.0
2014-Oct-20 18:33N 40°52' E 029°12'0 0.0
2014-Oct-20 17:21N 40°52' E 029°12'0 0.0
2014-Oct-20 16:27N 40°52' E 029°12'0 0.0
2014-Oct-20 15:33N 40°52' E 029°12'0 0.0
2014-Oct-20 14:30N 40°52' E 029°12'0 0.0
2014-Oct-20 13:30N 40°52' E 029°12'0 0.0
2014-Oct-20 12:30N 40°52' E 029°12'0 0.0
2014-Oct-20 11:33N 40°52' E 029°12'0 0.0
2014-Oct-20 10:26N 40°52' E 029°12'0 0.0
2014-Oct-20 09:14N 40°52' E 029°12'0 0.0
2014-Oct-20 08:32N 40°52' E 029°12'0 0.0
2014-Oct-20 07:29N 40°52' E 029°12'0 0.0
2014-Oct-20 06:29N 40°52' E 029°12'0 0.0
2014-Oct-20 05:29N 40°52' E 029°12'0 0.0
2014-Oct-20 04:17N 40°52' E 029°12'0 0.0
2014-Oct-20 03:23N 40°52' E 029°12'0 0.0
2014-Oct-20 02:17N 40°52' E 029°12'0 0.0
2014-Oct-20 01:29N 40°52' E 029°12'0 0.0
2014-Oct-20 00:33N 40°52' E 029°12'4 3.8
2014-Oct-19 23:33N 40°50' E 029°08'1010.2
2014-Oct-19 22:33N 40°48' E 028°55'  

Dump ship's entire track history